sensor_id;sensor_type;location;lat;lon;timestamp;temperature;humidity
22996;DHT22;11664;49.774;8.650;2023-11-21T00:00:10;9.40;99.90
22996;DHT22;11664;49.774;8.650;2023-11-21T00:02:44;9.30;99.90
22996;DHT22;11664;49.774;8.650;2023-11-21T00:05:12;9.30;99.90
22996;DHT22;11664;49.774;8.650;2023-11-21T00:07:40;9.40;99.90
22996;DHT22;11664;49.774;8.650;2023-11-21T00:10:07;9.40;99.90
22996;DHT22;11664;49.774;8.650;2023-11-21T00:12:38;9.30;99.90
22996;DHT22;11664;49.774;8.650;2023-11-21T00:15:07;9.30;99.90
22996;DHT22;11664;49.774;8.650;2023-11-21T00:17:39;9.30;99.90
22996;DHT22;11664;49.774;8.650;2023-11-21T00:20:09;9.30;99.90
22996;DHT22;11664;49.774;8.650;2023-11-21T00:22:41;9.30;99.90
22996;DHT22;11664;49.774;8.650;2023-11-21T00:25:07;9.30;99.90
22996;DHT22;11664;49.774;8.650;2023-11-21T00:27:38;9.30;99.90
22996;DHT22;11664;49.774;8.650;2023-11-21T00:30:03;9.30;99.90
22996;DHT22;11664;49.774;8.650;2023-11-21T00:32:44;9.30;99.90
22996;DHT22;11664;49.774;8.650;2023-11-21T00:35:10;9.30;99.90
22996;DHT22;11664;49.774;8.650;2023-11-21T00:37:44;9.30;99.90
22996;DHT22;11664;49.774;8.650;2023-11-21T00:40:10;9.30;99.90
22996;DHT22;11664;49.774;8.650;2023-11-21T00:42:42;9.30;99.90
22996;DHT22;11664;49.774;8.650;2023-11-21T00:45:08;9.30;99.90
22996;DHT22;11664;49.774;8.650;2023-11-21T00:47:40;9.20;99.90
22996;DHT22;11664;49.774;8.650;2023-11-21T00:50:09;9.20;99.90
22996;DHT22;11664;49.774;8.650;2023-11-21T00:52:35;9.20;99.90
22996;DHT22;11664;49.774;8.650;2023-11-21T00:55:01;9.30;99.90
22996;DHT22;11664;49.774;8.650;2023-11-21T00:57:28;9.30;99.90
22996;DHT22;11664;49.774;8.650;2023-11-21T00:59:56;9.20;99.90
22996;DHT22;11664;49.774;8.650;2023-11-21T01:02:22;9.20;99.90
22996;DHT22;11664;49.774;8.650;2023-11-21T01:04:48;9.20;99.90
22996;DHT22;11664;49.774;8.650;2023-11-21T01:07:16;9.20;99.90
22996;DHT22;11664;49.774;8.650;2023-11-21T01:09:45;9.30;99.90
22996;DHT22;11664;49.774;8.650;2023-11-21T01:12:17;9.30;99.90
22996;DHT22;11664;49.774;8.650;2023-11-21T01:14:49;9.20;99.90
22996;DHT22;11664;49.774;8.650;2023-11-21T01:17:21;9.30;99.90
22996;DHT22;11664;49.774;8.650;2023-11-21T01:19:51;9.20;99.90
22996;DHT22;11664;49.774;8.650;2023-11-21T01:22:19;9.30;99.90
22996;DHT22;11664;49.774;8.650;2023-11-21T01:24:51;9.30;99.90
22996;DHT22;11664;49.774;8.650;2023-11-21T01:27:16;9.30;99.90
22996;DHT22;11664;49.774;8.650;2023-11-21T01:29:42;9.30;99.90
22996;DHT22;11664;49.774;8.650;2023-11-21T01:32:11;9.30;99.90
22996;DHT22;11664;49.774;8.650;2023-11-21T01:34:42;9.30;99.90
22996;DHT22;11664;49.774;8.650;2023-11-21T01:37:08;9.30;99.90
22996;DHT22;11664;49.774;8.650;2023-11-21T01:39:34;9.30;99.90
22996;DHT22;11664;49.774;8.650;2023-11-21T01:41:59;9.30;99.90
22996;DHT22;11664;49.774;8.650;2023-11-21T01:44:25;9.30;99.90
22996;DHT22;11664;49.774;8.650;2023-11-21T01:46:54;9.30;99.90
22996;DHT22;11664;49.774;8.650;2023-11-21T01:49:19;9.30;99.90
22996;DHT22;11664;49.774;8.650;2023-11-21T01:51:48;9.30;99.90
22996;DHT22;11664;49.774;8.650;2023-11-21T01:54:15;9.30;99.90
22996;DHT22;11664;49.774;8.650;2023-11-21T01:56:43;9.30;99.90
22996;DHT22;11664;49.774;8.650;2023-11-21T01:59:12;9.40;99.90
22996;DHT22;11664;49.774;8.650;2023-11-21T02:01:38;9.40;99.90
22996;DHT22;11664;49.774;8.650;2023-11-21T02:04:09;9.40;99.90
22996;DHT22;11664;49.774;8.650;2023-11-21T02:06:35;9.40;99.90
22996;DHT22;11664;49.774;8.650;2023-11-21T02:09:04;9.30;99.90
22996;DHT22;11664;49.774;8.650;2023-11-21T02:11:39;9.40;99.90
22996;DHT22;11664;49.774;8.650;2023-11-21T02:14:07;9.30;99.90
22996;DHT22;11664;49.774;8.650;2023-11-21T02:16:34;9.40;99.90
22996;DHT22;11664;49.774;8.650;2023-11-21T02:19:07;9.40;99.90
22996;DHT22;11664;49.774;8.650;2023-11-21T02:21:37;9.40;99.90
22996;DHT22;11664;49.774;8.650;2023-11-21T02:24:08;9.40;99.90
22996;DHT22;11664;49.774;8.650;2023-11-21T02:26:35;9.40;99.90
22996;DHT22;11664;49.774;8.650;2023-11-21T02:29:01;9.40;99.90
22996;DHT22;11664;49.774;8.650;2023-11-21T02:31:29;9.40;99.90
22996;DHT22;11664;49.774;8.650;2023-11-21T02:33:55;9.40;99.90
22996;DHT22;11664;49.774;8.650;2023-11-21T02:36:26;9.40;99.90
22996;DHT22;11664;49.774;8.650;2023-11-21T02:38:52;9.40;99.90
22996;DHT22;11664;49.774;8.650;2023-11-21T02:41:20;9.40;99.90
22996;DHT22;11664;49.774;8.650;2023-11-21T02:43:48;9.40;99.90
22996;DHT22;11664;49.774;8.650;2023-11-21T02:46:14;9.50;99.90
22996;DHT22;11664;49.774;8.650;2023-11-21T02:48:39;9.50;99.90
22996;DHT22;11664;49.774;8.650;2023-11-21T02:51:08;9.40;99.90
22996;DHT22;11664;49.774;8.650;2023-11-21T02:53:34;9.40;99.90
22996;DHT22;11664;49.774;8.650;2023-11-21T02:56:05;9.40;99.90
22996;DHT22;11664;49.774;8.650;2023-11-21T02:58:31;9.50;99.90
22996;DHT22;11664;49.774;8.650;2023-11-21T03:00:56;9.40;99.90
22996;DHT22;11664;49.774;8.650;2023-11-21T03:03:22;9.40;99.90
22996;DHT22;11664;49.774;8.650;2023-11-21T03:05:49;9.50;99.90
22996;DHT22;11664;49.774;8.650;2023-11-21T03:08:15;9.40;99.90
22996;DHT22;11664;49.774;8.650;2023-11-21T03:10:50;9.40;99.90
22996;DHT22;11664;49.774;8.650;2023-11-21T03:13:24;9.40;99.90
22996;DHT22;11664;49.774;8.650;2023-11-21T03:15:49;9.40;99.90
22996;DHT22;11664;49.774;8.650;2023-11-21T03:18:21;9.40;99.90
22996;DHT22;11664;49.774;8.650;2023-11-21T03:20:52;9.40;99.90
22996;DHT22;11664;49.774;8.650;2023-11-21T03:23:27;9.40;99.90
22996;DHT22;11664;49.774;8.650;2023-11-21T03:25:56;9.50;99.90
22996;DHT22;11664;49.774;8.650;2023-11-21T03:28:21;9.50;99.90
22996;DHT22;11664;49.774;8.650;2023-11-21T03:30:47;9.50;99.90
22996;DHT22;11664;49.774;8.650;2023-11-21T03:33:15;9.50;99.90
22996;DHT22;11664;49.774;8.650;2023-11-21T03:35:44;9.40;99.90
22996;DHT22;11664;49.774;8.650;2023-11-21T03:38:19;9.40;99.90
22996;DHT22;11664;49.774;8.650;2023-11-21T03:40:44;9.40;99.90
22996;DHT22;11664;49.774;8.650;2023-11-21T03:43:13;9.40;99.90
22996;DHT22;11664;49.774;8.650;2023-11-21T03:45:39;9.50;99.90
22996;DHT22;11664;49.774;8.650;2023-11-21T03:48:06;9.50;99.90
22996;DHT22;11664;49.774;8.650;2023-11-21T03:50:35;9.40;99.90
22996;DHT22;11664;49.774;8.650;2023-11-21T03:53:00;9.50;99.90
22996;DHT22;11664;49.774;8.650;2023-11-21T03:55:26;9.40;99.90
22996;DHT22;11664;49.774;8.650;2023-11-21T03:57:52;9.40;99.90
22996;DHT22;11664;49.774;8.650;2023-11-21T04:00:25;9.40;99.90
22996;DHT22;11664;49.774;8.650;2023-11-21T04:02:52;9.40;99.90
22996;DHT22;11664;49.774;8.650;2023-11-21T04:05:20;9.40;99.90
22996;DHT22;11664;49.774;8.650;2023-11-21T04:07:50;9.40;99.90
22996;DHT22;11664;49.774;8.650;2023-11-21T04:10:16;9.40;99.90
22996;DHT22;11664;49.774;8.650;2023-11-21T04:12:45;9.40;99.90
22996;DHT22;11664;49.774;8.650;2023-11-21T04:15:17;9.40;99.90
22996;DHT22;11664;49.774;8.650;2023-11-21T04:17:43;9.30;99.90
22996;DHT22;11664;49.774;8.650;2023-11-21T04:20:09;9.40;99.90
22996;DHT22;11664;49.774;8.650;2023-11-21T04:22:42;9.40;99.90
22996;DHT22;11664;49.774;8.650;2023-11-21T04:25:10;9.40;99.90
22996;DHT22;11664;49.774;8.650;2023-11-21T04:27:44;9.40;99.90
22996;DHT22;11664;49.774;8.650;2023-11-21T04:30:22;9.40;99.90
22996;DHT22;11664;49.774;8.650;2023-11-21T04:32:47;9.40;99.90
22996;DHT22;11664;49.774;8.650;2023-11-21T04:35:13;9.40;99.90
22996;DHT22;11664;49.774;8.650;2023-11-21T04:37:41;9.40;99.90
22996;DHT22;11664;49.774;8.650;2023-11-21T04:40:07;9.40;99.90
22996;DHT22;11664;49.774;8.650;2023-11-21T04:42:35;9.40;99.90
22996;DHT22;11664;49.774;8.650;2023-11-21T04:45:10;9.40;99.90
22996;DHT22;11664;49.774;8.650;2023-11-21T04:47:46;9.40;99.90
22996;DHT22;11664;49.774;8.650;2023-11-21T04:50:18;9.40;99.90
22996;DHT22;11664;49.774;8.650;2023-11-21T04:52:44;9.40;99.90
22996;DHT22;11664;49.774;8.650;2023-11-21T04:55:10;9.40;99.90
22996;DHT22;11664;49.774;8.650;2023-11-21T04:57:36;9.40;99.90
22996;DHT22;11664;49.774;8.650;2023-11-21T05:00:09;9.40;99.90
22996;DHT22;11664;49.774;8.650;2023-11-21T05:02:35;9.40;99.90
22996;DHT22;11664;49.774;8.650;2023-11-21T05:05:09;9.40;99.90
22996;DHT22;11664;49.774;8.650;2023-11-21T05:07:36;9.40;99.90
22996;DHT22;11664;49.774;8.650;2023-11-21T05:10:06;9.30;99.90
22996;DHT22;11664;49.774;8.650;2023-11-21T05:12:34;9.40;99.90
22996;DHT22;11664;49.774;8.650;2023-11-21T05:15:05;9.40;99.90
22996;DHT22;11664;49.774;8.650;2023-11-21T05:17:44;9.40;99.90
22996;DHT22;11664;49.774;8.650;2023-11-21T05:20:11;9.40;99.90
22996;DHT22;11664;49.774;8.650;2023-11-21T05:22:41;9.40;99.90
22996;DHT22;11664;49.774;8.650;2023-11-21T05:25:07;9.40;99.90
22996;DHT22;11664;49.774;8.650;2023-11-21T05:27:36;9.40;99.90
22996;DHT22;11664;49.774;8.650;2023-11-21T05:30:05;9.40;99.90
22996;DHT22;11664;49.774;8.650;2023-11-21T05:32:34;9.30;99.90
22996;DHT22;11664;49.774;8.650;2023-11-21T05:35:00;9.30;99.90
22996;DHT22;11664;49.774;8.650;2023-11-21T05:37:29;9.30;99.90
22996;DHT22;11664;49.774;8.650;2023-11-21T05:40:02;9.30;99.90
22996;DHT22;11664;49.774;8.650;2023-11-21T05:42:35;9.30;99.90
22996;DHT22;11664;49.774;8.650;2023-11-21T05:45:01;9.30;99.90
22996;DHT22;11664;49.774;8.650;2023-11-21T05:47:46;9.30;99.90
22996;DHT22;11664;49.774;8.650;2023-11-21T05:50:13;9.30;99.90
22996;DHT22;11664;49.774;8.650;2023-11-21T05:52:43;9.30;99.90
22996;DHT22;11664;49.774;8.650;2023-11-21T05:55:12;9.30;99.90
22996;DHT22;11664;49.774;8.650;2023-11-21T05:57:50;9.30;99.90
22996;DHT22;11664;49.774;8.650;2023-11-21T06:00:16;9.30;99.90
22996;DHT22;11664;49.774;8.650;2023-11-21T06:02:51;9.30;99.90
22996;DHT22;11664;49.774;8.650;2023-11-21T06:05:29;9.30;99.90
22996;DHT22;11664;49.774;8.650;2023-11-21T06:08:00;9.30;99.90
22996;DHT22;11664;49.774;8.650;2023-11-21T06:10:26;9.30;99.90
22996;DHT22;11664;49.774;8.650;2023-11-21T06:12:56;9.20;99.90
22996;DHT22;11664;49.774;8.650;2023-11-21T06:15:23;9.20;99.90
22996;DHT22;11664;49.774;8.650;2023-11-21T06:17:52;9.20;99.90
22996;DHT22;11664;49.774;8.650;2023-11-21T06:20:18;9.20;99.90
22996;DHT22;11664;49.774;8.650;2023-11-21T06:22:49;9.20;99.90
22996;DHT22;11664;49.774;8.650;2023-11-21T06:25:18;9.20;99.90
22996;DHT22;11664;49.774;8.650;2023-11-21T06:27:47;9.20;99.90
22996;DHT22;11664;49.774;8.650;2023-11-21T06:30:29;9.20;99.90
22996;DHT22;11664;49.774;8.650;2023-11-21T06:32:54;9.30;99.90
22996;DHT22;11664;49.774;8.650;2023-11-21T06:35:21;9.30;99.90
22996;DHT22;11664;49.774;8.650;2023-11-21T06:37:52;9.20;99.90
22996;DHT22;11664;49.774;8.650;2023-11-21T06:40:18;9.30;99.90
22996;DHT22;11664;49.774;8.650;2023-11-21T06:42:44;9.20;99.90
22996;DHT22;11664;49.774;8.650;2023-11-21T06:45:10;9.20;99.90
22996;DHT22;11664;49.774;8.650;2023-11-21T06:47:36;9.10;99.90
22996;DHT22;11664;49.774;8.650;2023-11-21T06:50:03;9.10;99.90
22996;DHT22;11664;49.774;8.650;2023-11-21T06:52:29;9.00;99.90
22996;DHT22;11664;49.774;8.650;2023-11-21T06:54:55;9.00;99.90
22996;DHT22;11664;49.774;8.650;2023-11-21T06:57:22;9.00;99.90
22996;DHT22;11664;49.774;8.650;2023-11-21T06:59:51;9.00;99.90
22996;DHT22;11664;49.774;8.650;2023-11-21T07:02:19;9.00;99.90
22996;DHT22;11664;49.774;8.650;2023-11-21T07:04:57;9.10;99.90
22996;DHT22;11664;49.774;8.650;2023-11-21T07:07:29;9.10;99.90
22996;DHT22;11664;49.774;8.650;2023-11-21T07:09:54;9.10;99.90
22996;DHT22;11664;49.774;8.650;2023-11-21T07:12:20;9.00;99.90
22996;DHT22;11664;49.774;8.650;2023-11-21T07:14:49;9.00;99.90
22996;DHT22;11664;49.774;8.650;2023-11-21T07:17:17;9.00;99.90
22996;DHT22;11664;49.774;8.650;2023-11-21T07:19:55;9.00;99.90
22996;DHT22;11664;49.774;8.650;2023-11-21T07:22:21;9.00;99.90
22996;DHT22;11664;49.774;8.650;2023-11-21T07:24:50;9.00;99.90
22996;DHT22;11664;49.774;8.650;2023-11-21T07:27:19;9.00;99.90
22996;DHT22;11664;49.774;8.650;2023-11-21T07:29:47;9.00;99.90
22996;DHT22;11664;49.774;8.650;2023-11-21T07:32:16;9.00;99.90
22996;DHT22;11664;49.774;8.650;2023-11-21T07:34:45;9.00;99.90
22996;DHT22;11664;49.774;8.650;2023-11-21T07:37:13;9.00;99.90
22996;DHT22;11664;49.774;8.650;2023-11-21T07:39:51;9.10;99.90
22996;DHT22;11664;49.774;8.650;2023-11-21T07:42:26;9.10;99.90
22996;DHT22;11664;49.774;8.650;2023-11-21T07:44:55;9.10;99.90
22996;DHT22;11664;49.774;8.650;2023-11-21T07:47:24;9.10;99.90
22996;DHT22;11664;49.774;8.650;2023-11-21T07:49:55;9.10;99.90
22996;DHT22;11664;49.774;8.650;2023-11-21T07:52:24;9.20;99.90
22996;DHT22;11664;49.774;8.650;2023-11-21T07:54:50;9.30;99.90
22996;DHT22;11664;49.774;8.650;2023-11-21T07:57:16;9.20;99.90
22996;DHT22;11664;49.774;8.650;2023-11-21T07:59:41;9.30;99.90
22996;DHT22;11664;49.774;8.650;2023-11-21T08:02:13;9.30;99.90
22996;DHT22;11664;49.774;8.650;2023-11-21T08:04:41;9.30;99.90
22996;DHT22;11664;49.774;8.650;2023-11-21T08:07:10;9.30;99.90
22996;DHT22;11664;49.774;8.650;2023-11-21T08:09:36;9.30;99.90
22996;DHT22;11664;49.774;8.650;2023-11-21T08:12:04;9.30;99.90
22996;DHT22;11664;49.774;8.650;2023-11-21T08:14:30;9.30;99.90
22996;DHT22;11664;49.774;8.650;2023-11-21T08:16:56;9.40;99.90
22996;DHT22;11664;49.774;8.650;2023-11-21T08:19:23;9.40;99.90
22996;DHT22;11664;49.774;8.650;2023-11-21T08:21:51;9.40;99.90
22996;DHT22;11664;49.774;8.650;2023-11-21T08:24:22;9.40;99.90
22996;DHT22;11664;49.774;8.650;2023-11-21T08:26:48;9.40;99.90
22996;DHT22;11664;49.774;8.650;2023-11-21T08:29:18;9.40;99.90
22996;DHT22;11664;49.774;8.650;2023-11-21T08:31:49;9.50;99.90
22996;DHT22;11664;49.774;8.650;2023-11-21T08:34:15;9.50;99.90
22996;DHT22;11664;49.774;8.650;2023-11-21T08:36:47;9.50;99.90
22996;DHT22;11664;49.774;8.650;2023-11-21T08:39:12;9.60;99.90
22996;DHT22;11664;49.774;8.650;2023-11-21T08:41:41;9.70;99.90
22996;DHT22;11664;49.774;8.650;2023-11-21T08:44:07;9.70;99.90
22996;DHT22;11664;49.774;8.650;2023-11-21T08:46:33;9.70;99.90
22996;DHT22;11664;49.774;8.650;2023-11-21T08:49:03;9.70;99.90
22996;DHT22;11664;49.774;8.650;2023-11-21T08:51:31;9.60;99.90
22996;DHT22;11664;49.774;8.650;2023-11-21T08:53:57;9.70;99.90
22996;DHT22;11664;49.774;8.650;2023-11-21T08:56:25;9.70;99.90
22996;DHT22;11664;49.774;8.650;2023-11-21T08:59:33;9.60;99.90
22996;DHT22;11664;49.774;8.650;2023-11-21T09:02:01;9.70;99.90
22996;DHT22;11664;49.774;8.650;2023-11-21T09:04:26;9.70;99.90
22996;DHT22;11664;49.774;8.650;2023-11-21T09:06:52;9.70;99.90
22996;DHT22;11664;49.774;8.650;2023-11-21T09:09:18;9.80;99.90
22996;DHT22;11664;49.774;8.650;2023-11-21T09:11:57;9.90;99.90
22996;DHT22;11664;49.774;8.650;2023-11-21T09:14:28;9.90;99.90
22996;DHT22;11664;49.774;8.650;2023-11-21T09:16:54;9.90;99.90
22996;DHT22;11664;49.774;8.650;2023-11-21T09:19:19;9.90;99.90
22996;DHT22;11664;49.774;8.650;2023-11-21T09:21:48;9.90;99.90
22996;DHT22;11664;49.774;8.650;2023-11-21T09:24:14;9.90;99.90
22996;DHT22;11664;49.774;8.650;2023-11-21T09:26:40;9.90;99.90
22996;DHT22;11664;49.774;8.650;2023-11-21T09:29:05;9.90;99.90
22996;DHT22;11664;49.774;8.650;2023-11-21T09:31:31;9.70;99.90
22996;DHT22;11664;49.774;8.650;2023-11-21T09:33:56;9.80;99.90
22996;DHT22;11664;49.774;8.650;2023-11-21T09:36:25;9.80;99.90
22996;DHT22;11664;49.774;8.650;2023-11-21T09:38:53;9.80;99.90
22996;DHT22;11664;49.774;8.650;2023-11-21T09:41:37;9.80;99.90
22996;DHT22;11664;49.774;8.650;2023-11-21T09:44:09;9.80;99.90
22996;DHT22;11664;49.774;8.650;2023-11-21T09:46:42;9.80;99.90
22996;DHT22;11664;49.774;8.650;2023-11-21T09:49:09;9.70;99.90
22996;DHT22;11664;49.774;8.650;2023-11-21T09:51:55;9.70;99.90
22996;DHT22;11664;49.774;8.650;2023-11-21T09:54:27;9.90;99.90
22996;DHT22;11664;49.774;8.650;2023-11-21T09:57:04;9.90;99.90
22996;DHT22;11664;49.774;8.650;2023-11-21T09:59:31;10.00;99.90
22996;DHT22;11664;49.774;8.650;2023-11-21T10:01:58;10.00;99.90
22996;DHT22;11664;49.774;8.650;2023-11-21T10:04:24;10.00;99.90
22996;DHT22;11664;49.774;8.650;2023-11-21T10:06:50;10.20;99.90
22996;DHT22;11664;49.774;8.650;2023-11-21T10:09:17;10.20;99.90
22996;DHT22;11664;49.774;8.650;2023-11-21T10:11:43;10.20;99.90
22996;DHT22;11664;49.774;8.650;2023-11-21T10:14:17;10.00;99.90
22996;DHT22;11664;49.774;8.650;2023-11-21T10:16:47;10.10;99.90
22996;DHT22;11664;49.774;8.650;2023-11-21T10:19:14;10.20;99.90
22996;DHT22;11664;49.774;8.650;2023-11-21T10:21:47;10.20;99.90
22996;DHT22;11664;49.774;8.650;2023-11-21T10:24:19;10.30;99.90
22996;DHT22;11664;49.774;8.650;2023-11-21T10:26:47;10.30;99.90
22996;DHT22;11664;49.774;8.650;2023-11-21T10:29:20;10.40;99.90
22996;DHT22;11664;49.774;8.650;2023-11-21T10:31:50;10.30;99.90
22996;DHT22;11664;49.774;8.650;2023-11-21T10:34:20;10.30;99.90
22996;DHT22;11664;49.774;8.650;2023-11-21T10:36:49;10.40;99.90
22996;DHT22;11664;49.774;8.650;2023-11-21T10:39:17;10.40;99.90
22996;DHT22;11664;49.774;8.650;2023-11-21T10:41:55;10.40;99.90
22996;DHT22;11664;49.774;8.650;2023-11-21T10:44:21;10.30;99.90
22996;DHT22;11664;49.774;8.650;2023-11-21T10:46:53;10.30;99.90
22996;DHT22;11664;49.774;8.650;2023-11-21T10:49:27;10.40;99.90
22996;DHT22;11664;49.774;8.650;2023-11-21T10:52:05;10.30;99.90
22996;DHT22;11664;49.774;8.650;2023-11-21T10:54:31;10.40;99.90
22996;DHT22;11664;49.774;8.650;2023-11-21T10:56:57;10.40;99.90
22996;DHT22;11664;49.774;8.650;2023-11-21T10:59:28;10.40;99.90
22996;DHT22;11664;49.774;8.650;2023-11-21T11:01:54;10.30;99.90
22996;DHT22;11664;49.774;8.650;2023-11-21T11:04:22;10.40;99.90
22996;DHT22;11664;49.774;8.650;2023-11-21T11:06:56;10.50;99.90
22996;DHT22;11664;49.774;8.650;2023-11-21T11:09:30;10.60;99.90
22996;DHT22;11664;49.774;8.650;2023-11-21T11:11:56;10.50;99.90
22996;DHT22;11664;49.774;8.650;2023-11-21T11:14:21;10.50;99.90
22996;DHT22;11664;49.774;8.650;2023-11-21T11:16:53;10.40;99.90
22996;DHT22;11664;49.774;8.650;2023-11-21T11:19:25;10.40;99.90
22996;DHT22;11664;49.774;8.650;2023-11-21T11:27:25;10.40;99.90
22996;DHT22;11664;49.774;8.650;2023-11-21T11:38:23;11.00;99.90
22996;DHT22;11664;49.774;8.650;2023-11-21T11:40:52;11.20;99.90
22996;DHT22;11664;49.774;8.650;2023-11-21T11:43:27;11.20;99.90
22996;DHT22;11664;49.774;8.650;2023-11-21T11:45:56;11.20;99.90
22996;DHT22;11664;49.774;8.650;2023-11-21T11:48:22;11.20;99.90
22996;DHT22;11664;49.774;8.650;2023-11-21T11:51:19;11.50;99.90
22996;DHT22;11664;49.774;8.650;2023-11-21T11:53:47;11.70;99.90
22996;DHT22;11664;49.774;8.650;2023-11-21T11:58:55;12.20;99.90
22996;DHT22;11664;49.774;8.650;2023-11-21T12:01:22;12.40;99.90
22996;DHT22;11664;49.774;8.650;2023-11-21T12:06:43;12.50;99.90
22996;DHT22;11664;49.774;8.650;2023-11-21T12:09:28;12.70;99.90
22996;DHT22;11664;49.774;8.650;2023-11-21T12:11:55;12.70;99.90
22996;DHT22;11664;49.774;8.650;2023-11-21T12:14:25;12.10;99.90
22996;DHT22;11664;49.774;8.650;2023-11-21T12:16:53;12.30;99.90
22996;DHT22;11664;49.774;8.650;2023-11-21T12:19:19;12.30;99.90
22996;DHT22;11664;49.774;8.650;2023-11-21T12:21:59;12.30;99.90
22996;DHT22;11664;49.774;8.650;2023-11-21T12:24:24;12.20;99.90
22996;DHT22;11664;49.774;8.650;2023-11-21T12:26:54;12.30;99.90
22996;DHT22;11664;49.774;8.650;2023-11-21T12:29:26;12.20;99.90
22996;DHT22;11664;49.774;8.650;2023-11-21T12:31:56;12.00;99.90
22996;DHT22;11664;49.774;8.650;2023-11-21T12:34:28;12.00;99.90
22996;DHT22;11664;49.774;8.650;2023-11-21T12:36:53;11.90;99.90
22996;DHT22;11664;49.774;8.650;2023-11-21T12:39:20;11.90;99.90
22996;DHT22;11664;49.774;8.650;2023-11-21T12:41:48;11.70;99.90
22996;DHT22;11664;49.774;8.650;2023-11-21T12:44:19;11.80;99.90
22996;DHT22;11664;49.774;8.650;2023-11-21T12:46:45;11.50;99.90
22996;DHT22;11664;49.774;8.650;2023-11-21T12:49:11;11.60;99.90
22996;DHT22;11664;49.774;8.650;2023-11-21T12:51:43;11.50;99.90
22996;DHT22;11664;49.774;8.650;2023-11-21T12:54:13;11.50;99.90
22996;DHT22;11664;49.774;8.650;2023-11-21T12:56:46;11.60;99.90
22996;DHT22;11664;49.774;8.650;2023-11-21T12:59:14;11.50;99.90
22996;DHT22;11664;49.774;8.650;2023-11-21T13:01:44;11.60;99.90
22996;DHT22;11664;49.774;8.650;2023-11-21T13:04:14;11.70;99.90
22996;DHT22;11664;49.774;8.650;2023-11-21T13:06:39;11.70;99.90
22996;DHT22;11664;49.774;8.650;2023-11-21T13:09:26;11.60;99.90
22996;DHT22;11664;49.774;8.650;2023-11-21T13:12:00;11.50;99.90
22996;DHT22;11664;49.774;8.650;2023-11-21T13:14:31;11.40;99.90
22996;DHT22;11664;49.774;8.650;2023-11-21T13:17:03;11.30;99.90
22996;DHT22;11664;49.774;8.650;2023-11-21T13:19:31;11.40;99.90
22996;DHT22;11664;49.774;8.650;2023-11-21T13:21:57;11.50;99.90
22996;DHT22;11664;49.774;8.650;2023-11-21T13:24:24;11.40;99.90
22996;DHT22;11664;49.774;8.650;2023-11-21T13:26:54;11.30;99.90
22996;DHT22;11664;49.774;8.650;2023-11-21T13:29:20;11.30;99.90
22996;DHT22;11664;49.774;8.650;2023-11-21T13:31:49;11.20;99.90
22996;DHT22;11664;49.774;8.650;2023-11-21T13:34:17;11.30;99.90
22996;DHT22;11664;49.774;8.650;2023-11-21T13:36:44;11.50;99.90
22996;DHT22;11664;49.774;8.650;2023-11-21T13:39:11;11.30;99.90
22996;DHT22;11664;49.774;8.650;2023-11-21T13:41:53;11.40;99.90
22996;DHT22;11664;49.774;8.650;2023-11-21T13:44:20;11.50;99.90
22996;DHT22;11664;49.774;8.650;2023-11-21T13:46:52;11.50;99.90
22996;DHT22;11664;49.774;8.650;2023-11-21T13:49:18;11.40;99.90
22996;DHT22;11664;49.774;8.650;2023-11-21T13:51:46;11.40;99.90
22996;DHT22;11664;49.774;8.650;2023-11-21T13:54:22;11.30;99.90
22996;DHT22;11664;49.774;8.650;2023-11-21T13:56:50;11.20;99.90
22996;DHT22;11664;49.774;8.650;2023-11-21T13:59:16;11.10;99.90
22996;DHT22;11664;49.774;8.650;2023-11-21T14:01:50;11.10;99.90
22996;DHT22;11664;49.774;8.650;2023-11-21T14:04:24;11.10;99.90
22996;DHT22;11664;49.774;8.650;2023-11-21T14:06:55;11.10;99.90
22996;DHT22;11664;49.774;8.650;2023-11-21T14:09:22;11.10;99.90
22996;DHT22;11664;49.774;8.650;2023-11-21T14:11:53;11.20;99.90
22996;DHT22;11664;49.774;8.650;2023-11-21T14:14:22;11.10;99.90
22996;DHT22;11664;49.774;8.650;2023-11-21T14:16:49;11.00;99.90
22996;DHT22;11664;49.774;8.650;2023-11-21T14:19:15;11.00;99.90
22996;DHT22;11664;49.774;8.650;2023-11-21T14:21:44;11.00;99.90
22996;DHT22;11664;49.774;8.650;2023-11-21T14:24:12;11.00;99.90
22996;DHT22;11664;49.774;8.650;2023-11-21T14:26:40;10.90;99.90
22996;DHT22;11664;49.774;8.650;2023-11-21T14:29:06;10.90;99.90
22996;DHT22;11664;49.774;8.650;2023-11-21T14:31:32;10.80;99.90
22996;DHT22;11664;49.774;8.650;2023-11-21T14:33:59;10.80;99.90
22996;DHT22;11664;49.774;8.650;2023-11-21T14:36:26;10.70;99.90
22996;DHT22;11664;49.774;8.650;2023-11-21T14:38:55;10.70;99.90
22996;DHT22;11664;49.774;8.650;2023-11-21T14:41:49;10.60;99.90
22996;DHT22;11664;49.774;8.650;2023-11-21T14:44:21;10.60;99.90
22996;DHT22;11664;49.774;8.650;2023-11-21T14:46:49;10.50;99.90
22996;DHT22;11664;49.774;8.650;2023-11-21T14:49:17;10.40;99.90
22996;DHT22;11664;49.774;8.650;2023-11-21T14:51:52;10.40;99.90
22996;DHT22;11664;49.774;8.650;2023-11-21T14:54:37;10.30;99.90
22996;DHT22;11664;49.774;8.650;2023-11-21T14:57:44;10.30;99.90
22996;DHT22;11664;49.774;8.650;2023-11-21T15:00:16;10.30;99.90
22996;DHT22;11664;49.774;8.650;2023-11-21T15:03:01;10.20;99.90
22996;DHT22;11664;49.774;8.650;2023-11-21T15:05:27;10.20;99.90
22996;DHT22;11664;49.774;8.650;2023-11-21T15:07:57;10.20;99.90
22996;DHT22;11664;49.774;8.650;2023-11-21T15:10:36;10.10;99.90
22996;DHT22;11664;49.774;8.650;2023-11-21T15:13:19;10.10;99.90
22996;DHT22;11664;49.774;8.650;2023-11-21T15:15:44;10.10;99.90
22996;DHT22;11664;49.774;8.650;2023-11-21T15:18:10;10.00;99.90
22996;DHT22;11664;49.774;8.650;2023-11-21T15:20:39;10.00;99.90
22996;DHT22;11664;49.774;8.650;2023-11-21T15:23:04;10.00;99.90
22996;DHT22;11664;49.774;8.650;2023-11-21T15:25:31;10.00;99.90
22996;DHT22;11664;49.774;8.650;2023-11-21T15:27:57;10.00;99.90
22996;DHT22;11664;49.774;8.650;2023-11-21T15:30:22;10.00;99.90
22996;DHT22;11664;49.774;8.650;2023-11-21T15:32:51;9.90;99.90
22996;DHT22;11664;49.774;8.650;2023-11-21T15:35:18;9.90;99.90
22996;DHT22;11664;49.774;8.650;2023-11-21T15:37:44;9.90;99.90
22996;DHT22;11664;49.774;8.650;2023-11-21T15:40:10;9.90;99.90
22996;DHT22;11664;49.774;8.650;2023-11-21T15:42:36;9.90;99.90
22996;DHT22;11664;49.774;8.650;2023-11-21T15:45:03;9.90;99.90
22996;DHT22;11664;49.774;8.650;2023-11-21T15:47:33;9.80;99.90
22996;DHT22;11664;49.774;8.650;2023-11-21T15:49:58;9.80;99.90
22996;DHT22;11664;49.774;8.650;2023-11-21T15:52:24;9.80;99.90
22996;DHT22;11664;49.774;8.650;2023-11-21T15:54:49;9.80;99.90
22996;DHT22;11664;49.774;8.650;2023-11-21T15:57:15;9.80;99.90
22996;DHT22;11664;49.774;8.650;2023-11-21T15:59:45;9.80;99.90
22996;DHT22;11664;49.774;8.650;2023-11-21T16:02:11;9.80;99.90
22996;DHT22;11664;49.774;8.650;2023-11-21T16:04:36;9.80;99.90
22996;DHT22;11664;49.774;8.650;2023-11-21T16:07:05;9.80;99.90
22996;DHT22;11664;49.774;8.650;2023-11-21T16:09:32;9.80;99.90
22996;DHT22;11664;49.774;8.650;2023-11-21T16:12:03;9.80;99.90